Canton, Connecticut
Current Conditions -  °F | °C
As of 5:51 PM on Thursday 23 Oct 2014 (Local Time) from KBDL Reporting Station
Drizzle Drizzle  
Wind Chill: 54°   Ceiling: 1800
Heat Index: 54°   Visibility: 6mi
Dew Point: 46°   Wind: 16mph
Humidity: 75%   Direction: 360°N
Pressure: 29.67"   Gusts: 25mph
Location:  41.82°N, 72.89°W
Report Text: KBDL 232151Z 36014G22KT 6SM -DZ BR BKN018 OVC035 12/08 A2967 RMK AO2 PK WND 36028/2108 SLP048 DZE20B41 P0000 T01220078
Loading
Personal Weather Stations






























Interactive Weather Map
Tropical Storm Tracking
New forecast layout! Learn more

10-Day Weather Forecast

Advertisements
Track Severe Weather on mobile